Westphalia, Indiana
Current Conditions -  °F | °C
As of 9:35 PM on Saturday 22 Nov 2014 (Local Time) from KDCY Reporting Station
Overcast Overcast  
Wind Chill: 51°   Ceiling: 6000
Heat Index: 51°   Visibility: 10mi
Dew Point: 40°   Wind: 7mph
Humidity: 66%   Direction: 170°S
Pressure: 30"   Gusts: NA
Location:  38.86°N, 87.23°W
Report Text: KDCY 230335Z AUTO 17006KT 10SM OVC060 10/04 A3000 RMK AO2 T01030042
Loading
Personal Weather Stations






























Interactive Weather Map New forecast layout! Learn more

10-Day Weather Forecast

Advertisements
Track Severe Weather on mobile